Yosemite National Park, CA

5:02 PM PDT op 29 juli 2015 (GMT -0700)
Loggers Retreat | | Change Station
CLOSE
Current Station
Persoonlijk weerstation
Location: Fish Camp, CA
Geometrische hoogte: 4960 ft
Nabije weerstations

Hoogte 4960 ft 37.45 °N, 119.65 °W | Updated 2 minutes ago

Helder
Helder
87.0 °F
Voelt als 84 °F
N
0.0
Wind Variabel Wind van west
Gusts 8.0 mijl/u

Vandaag
Hoog -- | Laag -- °F
--% Kans op neerslag
Gisteren
Hoog -- | Laag -- °F
Precip. -- inches
5:59 AM 8:09 PM
Wassende maan, 97% visible
Druk 29.94 inches
Zicht 10.0 mijlen
Wolken
Warmteindex 84 °F
Dauwpunt 42 °F
Vochtigheid 21%
Neerslag 0.00 inches
Dikte sneeuw Niet beschikbaar.
UV 2.0 van de 12
Pollen 5.50 van de 12
Luchtkwaliteit Niet beschikbaar.
Flu Activity Niet beschikbaar.
METAR KO22 292315Z AUTO 21004KT 10SM 39/03 A2994 RMK AO1

More Conditions Fewer Conditions

Druk 29.94 inches
Zicht 10.0 mijlen
Wolken
Warmteindex 84 °F
Dauwpunt 42 °F
Vochtigheid 21%
Neerslag 0.00 inches
Dikte sneeuw Niet beschikbaar.
UV 2.0 van de 12
Pollen 5.50 van de 12
Luchtkwaliteit Niet beschikbaar.
Flu Activity Niet beschikbaar.
METAR KO22 292315Z AUTO 21004KT 10SM 39/03 A2994 RMK AO1

More Conditions Fewer Conditions

10-Day Weather Forecast

×

Almanac

Astronomie

Jul. 29, 2015 Opkomst Ondergang
Werkelijke tijd
Burgerlijke schemering
Nautische schemering
Astronomische schemering
Maan
Golflengte van het zichtbare licht
Daglengte
Tomorrow will be .
, % of the Moon is Illuminated

Extremen vandaag

State Highs State Lows

Community

WunderPhotos

Upload Photos

1,842,204 foto’s ge-upload!

WunderBlogs® & News

Nearby

Luchtkwaliteit

  Luchtkwaliteit LK-index Verontreinigende stof
Not available.

Dikte sneeuw

Station Depth Geometrische hoogte

Aardbevingen

Stad Distance Mag. Time & Date
Minimum magnitude displayed is 2.5.

Watertemperatuur langs de kust

Plaats Temperatuur

Stations

Nabije weerstations

Locatie station Temp. Gevoelstemperatuur Dauwpunt Vochtigheid Wind Precip. Hoogte Geactualiseerd Type